SUMUSUSO

Guest
Details From SUMU - Montevideo Carrasco Intl
To SUSO - Nueva Hesperides Intl
Flight Number -
Tags Decoded
Created
Modified
Stats Distance 227 nm / 420 km
Max Altitude 0 ft / 0 m
Waypoints 2
Social Downloads 1
Likes 0
Share VATSIM

Download

Looking for another format? Having issues loading an existing format? Contact us
Advertisement - Login to hide

Notes

Decoded

Route

SUMU SUSO

ID Type Via Altitude Latitude Longitude Leg Dist Tot Dist Heading (true) Name
O SUMU APT - 0 ft / 0 m -34.83742˚ -56.03572˚ - 0 nm - -
O SUSO APT - 0 ft / 0 m -31.43078˚ -57.98914˚ 226 nm 226 nm 334° / 335° -

Altitude Profile

Advertisement - Login to hide

Weather


0- 5 10 15 20 25 30 35+ Temperature / ° C

Clouds and Precipitation
Forecast for 2018-05-24 18:00 UTC. Updated an hour ago

Ground ~20,000 ft ~40,000 ft Winds

SUMU

Details ICAO SUMU (MVD)
Name Montevideo Carrasco Intl
Region Uruguay
Timezone America/Montevideo (UTC-3.0)
Stats Elevation 105 ft / 32 m (AMSL)
Location -34.834888° -56.027727°
Runways 3
Magnetic Variation 10.891° W

METAR

SUMU 241800Z 29005KT CAVOK 19/11 Q1023 NOSIG

Decode

TAF

TAF TAF SUMU 241730Z 2418/2518 27005KT CAVOK TX19/2518Z TN05/2510Z TEMPO 2423/2508 36005KT 3000 BR NSC BECMG 2509/2512 32010KT 9999 FEW020

Decode

Departure Runways

ID Width Length Bearing (true) Bearing (mag) Surface Threshold Offset Overrun Length
01 148 ft / 45 m 7,406 ft / 2,257 m 359.19° 10.08° Asphalt 300 ft / 91 m 195 ft / 59 m
06 148 ft / 45 m 10,497 ft / 3,199 m 53.24° 64.13° Asphalt 1,150 ft / 351 m 500 ft / 152 m
10 148 ft / 45 m 5,578 ft / 1,700 m 90.77° 101.66° Concrete 200 ft / 61 m 0 ft / 0 m
19 148 ft / 45 m 7,406 ft / 2,257 m 179.19° 190.08° Asphalt 300 ft / 91 m 190 ft / 58 m
24 148 ft / 45 m 10,497 ft / 3,199 m 233.23° 244.12° Asphalt 490 ft / 149 m 0 ft / 0 m
28 148 ft / 45 m 5,578 ft / 1,700 m 270.76° 281.65° Concrete 200 ft / 61 m 0 ft / 0 m

SUSO

Details ICAO SUSO (STY)
Name NUEVA HESPERIDES INTL
Region Uruguay
Timezone America/Montevideo (UTC-3.0)
Stats Elevation 187 ft / 57 m (AMSL)
Location -31.435375° -57.985449°
Runways 2
Magnetic Variation 11.158° W

METAR

SUSO 241705Z RRA 06006KT CAVOK 19/07 Q1025

Decode

TAF

TAF SUSO 241730Z 2418/2518 31005KT CAVOK TX20/2518Z TN04/2510Z TEMPO 2506/2511 06005KT 3000 BR NSC BECMG 2509/2511 0400 FG SCT003 BECMG 2512/2515 05008KT 9999 FEW025

Decode

Destination Runways

ID Width Length Bearing (true) Bearing (mag) Surface Threshold Offset Overrun Length
05 148 ft / 45 m 5,215 ft / 1,589 m 38.75° 49.91° Asphalt 0 ft / 0 m 0 ft / 0 m
13 164 ft / 50 m 2,457 ft / 749 m 116.35° 127.51° Grass 0 ft / 0 m 0 ft / 0 m
23 148 ft / 45 m 5,215 ft / 1,589 m 218.75° 229.91° Asphalt 0 ft / 0 m 0 ft / 0 m
31 164 ft / 50 m 2,457 ft / 749 m 296.35° 307.51° Grass 0 ft / 0 m 0 ft / 0 m

Popular Alternatives